Nearby METAR Reports

 

CYOW - Ottawa Intl, Ontario, Canada
Distance from station: N 33km
Updated: 20/02/2018 01:27
Mist, Overcast
Mist, Overcast
 Wind from NE
Wind: NE 11 km/h
Temperature: 1°C
Wind Chill: -2°C
Dew Point: 1°C
Humidity: 100%
Barometer: 30.10 inHg , 1019.3 hPa
Summary: Mist
Clouds: Overcast
Visibility: 5 km
Cloud details: Overcast 640 m
2018/02/20 06:27 CYOW 200627Z 05006KT 3SM BR OVC021 01/01 A3010 RMK SC8 SLP199
CYGK - Kingston Arpt, Ontario, Canada
Distance from station: SW 117km
Updated: 19/02/2018 23:00
NOT Current
Fog, Overcast
Fog, Overcast
 Wind from SSE
Wind: SSE 11 km/h
Temperature: 3°C
Wind Chill: 0°C
Dew Point: 3°C
Humidity: 100%
Barometer: 30.05 inHg , 1017.6 hPa
Summary: Fog
Clouds: Overcast
Visibility: 0.6 km
Cloud details: Overcast 61 m
2018/02/20 04:00 CYGK 200400Z 15006KT 3/8SM FG VV002 03/03 A3005 RMK FG8 LAST STFD OBS/NEXT 201100 UTC SLP182
KMSS - Massena, New York, USA
Distance from station: E 62km
Updated: 20/02/2018 01:53
Light rain, Mist, Overcast
Light rain, Mist, Overcast
 Wind from ENE
Wind: ENE 7 km/h
Temperature: 2°C
Wind Chill: 0°C
Dew Point: 2°C
Humidity: 100%
Barometer: 30.12 inHg , 1020 hPa
Summary: Light rain, Mist
Clouds: Overcast
Visibility: 10 km
Cloud details: Overcast 91 m
2018/02/20 06:53 KMSS 200653Z AUTO 07004KT 6SM -RA BR OVC003 02/02 A3012 RMK AO2 UPB21E24 SLP204 P0001 T00220022